Time;durP1;ratioP1;P1;durP2;ratioP2;P2;SDS_P1;SDS_P2;PMS_P1;PMS_P2;Temp;Humidity;BMP_temperature;BMP_pressure;BME280_temperature;BME280_humidity;BME280_pressure;Samples;Min_cycle;Max_cycle;Signal;HPM_P1;HPM_P2
2023/05/27 00:01:22;;;;;;;11.55;4.15;;;;;;;12.55;52.90;99073.56;5017181;28;20430;-74
2023/05/27 00:16:56;;;;;;;10.55;3.65;;;;;;;12.56;53.06;99104.91;4993911;28;20456;-74
2023/05/27 00:19:23;;;;;;;12.10;4.15;;;;;;;12.35;53.60;99106.31;5010768;28;20050;-77
2023/05/27 00:34:51;;;;;;;11.07;4.03;;;;;;;12.29;53.98;99102.69;5457686;22;20095;-75
2023/05/27 00:37:16;;;;;;;11.20;4.15;;;;;;;12.24;53.96;99096.31;5019923;28;20096;-75
2023/05/27 00:39:41;;;;;;;10.43;4.40;;;;;;;12.44;53.28;99097.63;5000789;28;20026;-75
2023/05/27 00:42:07;;;;;;;13.95;4.70;;;;;;;12.37;53.50;99088.81;5006737;28;20040;-73
2023/05/27 00:44:33;;;;;;;10.82;4.32;;;;;;;12.27;53.36;99099.41;5036355;28;20533;-75
2023/05/27 00:46:58;;;;;;;10.10;4.45;;;;;;;12.31;53.73;99091.63;5020523;28;20024;-74
2023/05/27 00:49:26;;;;;;;11.57;4.13;;;;;;;12.38;53.06;99095.88;5004439;28;20478;-75
2023/05/27 00:51:51;;;;;;;12.75;3.88;;;;;;;12.45;53.06;99096.59;5022410;28;20171;-75
2023/05/27 00:54:17;;;;;;;15.40;3.85;;;;;;;12.41;53.48;99094.59;5021728;28;20421;-77
2023/05/27 00:56:43;;;;;;;12.05;3.95;;;;;;;12.33;53.30;99084.94;5022379;28;20032;-75
2023/05/27 00:59:09;;;;;;;11.07;4.57;;;;;;;12.23;53.77;99098.19;5037876;28;20021;-74
2023/05/27 01:01:36;;;;;;;12.23;4.38;;;;;;;12.12;54.33;99093.59;5022245;28;20033;-75
2023/05/27 01:04:03;;;;;;;11.25;4.40;;;;;;;11.88;55.33;99089.19;5022638;28;20032;-74
2023/05/27 01:06:59;;;;;;;10.60;4.47;;;;;;;11.96;54.44;99086.19;5016927;28;20033;-75
2023/05/27 01:09:28;;;;;;;11.82;3.90;;;;;;;11.84;55.32;99085.31;5033934;28;20032;-75
2023/05/27 01:12:02;;;;;;;16.52;4.93;;;;;;;11.90;55.33;99089.00;5019426;28;20029;-76
2023/05/27 01:14:30;;;;;;;11.80;4.00;;;;;;;11.90;54.65;99092.53;5003345;28;20028;-77
2023/05/27 01:16:57;;;;;;;11.70;3.97;;;;;;;11.94;54.74;99088.28;5036341;28;20040;-76
2023/05/27 01:19:36;;;;;;;13.70;4.10;;;;;;;11.89;54.52;99082.75;5036966;28;20474;-77
2023/05/27 01:22:02;;;;;;;10.38;3.90;;;;;;;11.90;55.13;99092.53;5036579;28;20033;-77
2023/05/27 01:24:28;;;;;;;12.70;4.30;;;;;;;11.77;55.54;99076.50;5019644;28;20031;-76
2023/05/27 01:26:55;;;;;;;10.10;4.35;;;;;;;11.62;55.64;99078.78;5019064;28;20447;-76
2023/05/27 01:29:20;;;;;;;10.05;4.20;;;;;;;11.90;54.64;99081.72;5019542;28;20044;-76
2023/05/27 01:31:52;;;;;;;13.50;4.50;;;;;;;11.71;55.73;99075.56;5017364;28;20033;-76
2023/05/27 01:34:23;;;;;;;13.35;4.95;;;;;;;11.84;55.34;99071.84;5020289;28;20037;-76
2023/05/27 01:36:56;;;;;;;18.25;4.43;;;;;;;11.65;55.76;99072.91;5019062;28;20068;-75
2023/05/27 01:39:23;;;;;;;9.88;3.65;;;;;;;11.86;54.91;99068.88;5052905;28;20032;-75
2023/05/27 01:41:49;;;;;;;10.05;3.75;;;;;;;11.83;54.98;99067.50;5019062;28;20108;-75
2023/05/27 01:44:17;;;;;;;15.73;4.85;;;;;;;11.82;54.75;99063.16;5016358;28;20116;-75
2023/05/27 01:46:42;;;;;;;13.65;4.07;;;;;;;11.68;55.66;99067.94;4999310;28;20021;-75
2023/05/27 01:49:08;;;;;;;12.13;4.15;;;;;;;11.85;54.74;99060.00;4999299;28;20494;-75
2023/05/27 01:51:33;;;;;;;11.93;4.32;;;;;;;11.67;56.03;99051.91;4999080;28;20030;-74
2023/05/27 01:53:58;;;;;;;10.68;4.28;;;;;;;11.91;55.00;99050.97;5016244;28;20391;-74
2023/05/27 01:56:24;;;;;;;13.38;4.10;;;;;;;11.87;55.10;99060.56;4999846;28;20025;-73
2023/05/27 01:58:49;;;;;;;13.35;4.10;;;;;;;11.53;56.38;99063.94;5000113;28;20132;-75
2023/05/27 02:01:15;;;;;;;12.10;4.18;;;;;;;11.78;55.53;99045.78;5000747;28;20079;-75
2023/05/27 02:03:40;;;;;;;14.27;4.03;;;;;;;11.68;55.21;99045.50;5007055;28;20506;-74
2023/05/27 02:06:05;;;;;;;15.88;4.57;;;;;;;11.65;55.77;99059.41;5016788;28;20032;-75
2023/05/27 02:08:32;;;;;;;11.35;4.22;;;;;;;11.89;54.76;99049.53;5018443;28;20483;-73
2023/05/27 02:10:58;;;;;;;12.18;4.55;;;;;;;11.91;54.52;99061.75;5013036;28;20198;-73
2023/05/27 02:13:23;;;;;;;10.45;4.80;;;;;;;11.82;55.08;99065.00;5040302;28;20039;-73
2023/05/27 02:15:48;;;;;;;14.30;4.63;;;;;;;11.95;54.91;99062.94;5018440;28;20017;-73
2023/05/27 02:18:14;;;;;;;10.38;3.83;;;;;;;11.81;55.29;99061.50;5034926;28;20033;-74
2023/05/27 02:20:39;;;;;;;15.90;4.38;;;;;;;11.91;55.46;99067.16;5019299;28;20025;-75
2023/05/27 02:23:06;;;;;;;9.77;3.90;;;;;;;11.78;55.64;99056.56;5015096;28;20033;-73
2023/05/27 02:25:32;;;;;;;13.65;4.15;;;;;;;11.39;56.60;99046.34;5017153;28;20091;-73
2023/05/27 02:27:57;;;;;;;12.77;4.90;;;;;;;11.83;55.09;99062.09;5034247;28;20068;-75
2023/05/27 02:30:22;;;;;;;12.60;4.80;;;;;;;11.81;55.28;99049.91;5035679;28;20051;-74
2023/05/27 02:32:49;;;;;;;10.20;4.30;;;;;;;11.68;55.75;99051.72;5003902;28;20029;-75
2023/05/27 02:35:15;;;;;;;12.73;4.30;;;;;;;11.68;56.17;99056.31;5002977;28;20123;-74
2023/05/27 02:37:40;;;;;;;10.82;4.00;;;;;;;11.48;55.77;99055.75;5008356;28;20029;-74
2023/05/27 02:40:08;;;;;;;12.38;4.63;;;;;;;11.75;55.12;99048.94;5011616;28;20502;-74
2023/05/27 02:42:33;;;;;;;15.27;4.35;;;;;;;11.62;55.49;99051.81;5026877;28;20029;-74
2023/05/27 02:44:59;;;;;;;15.52;4.53;;;;;;;11.85;55.13;99053.75;5021724;28;20024;-73
2023/05/27 02:47:24;;;;;;;12.32;4.53;;;;;;;11.56;55.73;99053.53;5025620;28;20037;-74
2023/05/27 02:49:49;;;;;;;8.25;3.72;;;;;;;11.66;56.21;99059.22;5014248;28;20025;-76
2023/05/27 02:52:16;;;;;;;12.02;4.15;;;;;;;11.52;56.47;99056.91;5019872;23;20033;-75
2023/05/27 02:54:41;;;;;;;15.30;4.55;;;;;;;11.45;56.65;99046.22;4977672;28;20112;-75
2023/05/27 02:57:07;;;;;;;12.07;4.30;;;;;;;11.42;56.95;99059.34;4998899;28;20029;-74
2023/05/27 02:59:32;;;;;;;14.65;4.65;;;;;;;11.52;56.34;99046.13;4998638;28;20025;-75
2023/05/27 03:01:58;;;;;;;11.45;4.32;;;;;;;11.39;56.79;99057.91;5015751;28;20128;-74
2023/05/27 03:04:23;;;;;;;11.23;4.13;;;;;;;11.39;56.95;99052.53;5014490;28;20021;-74
2023/05/27 03:06:49;;;;;;;13.48;4.30;;;;;;;11.42;57.06;99041.28;5031399;28;20108;-73
2023/05/27 03:09:14;;;;;;;12.25;4.00;;;;;;;11.45;57.11;99056.19;5031221;28;20140;-73
2023/05/27 03:11:40;;;;;;;11.73;3.95;;;;;;;11.03;57.71;99048.03;5015011;28;20068;-73
2023/05/27 03:14:05;;;;;;;10.98;4.82;;;;;;;11.36;57.38;99057.56;5017970;28;20167;-73
2023/05/27 03:16:31;;;;;;;16.70;4.80;;;;;;;11.29;57.53;99062.22;5018327;28;20029;-74
2023/05/27 03:18:56;;;;;;;12.25;4.40;;;;;;;11.16;57.49;99051.59;5034336;28;20032;-74
2023/05/27 03:21:22;;;;;;;15.05;4.43;;;;;;;10.98;58.35;99055.16;5018183;28;20037;-74
2023/05/27 03:23:48;;;;;;;14.02;4.60;;;;;;;11.22;58.06;99056.09;5017880;28;20021;-75
2023/05/27 03:26:13;;;;;;;11.35;4.97;;;;;;;11.23;57.66;99047.75;5017799;28;20060;-74
2023/05/27 03:28:38;;;;;;;11.50;4.40;;;;;;;11.11;58.37;99050.41;5017558;28;20029;-74
2023/05/27 03:31:05;;;;;;;12.65;4.65;;;;;;;11.08;57.96;99050.06;5026259;28;20067;-73
2023/05/27 03:34:03;;;;;;;9.40;4.47;;;;;;;11.23;58.12;99058.56;5024668;28;20024;-74
2023/05/27 03:36:28;;;;;;;12.82;4.95;;;;;;;11.10;58.34;99048.78;5018196;28;20037;-74
2023/05/27 03:38:56;;;;;;;10.82;4.60;;;;;;;11.01;59.32;99055.53;5018000;28;20494;-75
2023/05/27 03:41:21;;;;;;;12.60;4.47;;;;;;;11.09;59.11;99063.28;5018016;28;20040;-75
2023/05/27 03:43:47;;;;;;;15.82;4.97;;;;;;;11.13;58.65;99061.78;5017529;28;20021;-75
2023/05/27 03:46:15;;;;;;;15.85;4.90;;;;;;;11.13;58.45;99047.50;5017988;28;20033;-74
2023/05/27 03:48:41;;;;;;;11.30;4.63;;;;;;;11.36;58.28;99062.97;5017556;28;20036;-76
2023/05/27 03:51:06;;;;;;;12.25;4.10;;;;;;;10.94;59.71;99060.19;5020797;28;20033;-73
2023/05/27 03:53:32;;;;;;;10.68;4.57;;;;;;;10.91;59.28;99060.63;5037756;28;20040;-72
2023/05/27 03:55:57;;;;;;;14.07;4.30;;;;;;;11.13;59.59;99063.69;5038048;28;20430;-73
2023/05/27 03:58:22;;;;;;;14.80;5.43;;;;;;;11.32;58.40;99072.56;5037875;28;20104;-73
2023/05/27 04:00:48;;;;;;;16.73;4.55;;;;;;;11.20;58.59;99068.97;5037650;28;20694;-72
2023/05/27 04:03:14;;;;;;;11.70;4.50;;;;;;;11.41;58.72;99073.88;5037274;28;20028;-72
2023/05/27 04:05:40;;;;;;;8.18;4.32;;;;;;;11.40;59.13;99058.75;5020799;28;20487;-72
2023/05/27 04:08:05;;;;;;;11.00;4.28;;;;;;;11.59;58.04;99063.88;5020940;28;20394;-72
2023/05/27 04:10:30;;;;;;;13.43;4.80;;;;;;;11.19;59.93;99073.53;5037196;28;20116;-74
2023/05/27 04:12:56;;;;;;;15.07;5.13;;;;;;;11.00;60.92;99072.75;5020240;28;20496;-74
2023/05/27 04:15:21;;;;;;;11.43;4.78;;;;;;;11.05;61.32;99075.59;5037994;28;20037;-76
2023/05/27 04:17:47;;;;;;;11.68;4.28;;;;;;;11.23;60.59;99080.13;5005806;28;20029;-77
2023/05/27 04:20:15;;;;;;;11.48;4.80;;;;;;;11.22;59.38;99067.72;5021599;28;20043;-75
2023/05/27 04:22:44;;;;;;;13.55;5.07;;;;;;;11.16;59.89;99073.16;5008703;28;20021;-75
2023/05/27 04:25:09;;;;;;;10.98;4.30;;;;;;;11.53;58.13;99072.03;5019617;28;20033;-74
2023/05/27 04:27:47;;;;;;;12.85;4.45;;;;;;;11.59;58.37;99074.66;5021121;28;20029;-75
2023/05/27 04:30:13;;;;;;;14.27;5.10;;;;;;;11.60;58.44;99059.28;5019549;28;20039;-74
2023/05/27 04:32:39;;;;;;;15.25;4.70;;;;;;;11.57;58.77;99070.56;5019747;28;20029;-74
2023/05/27 04:35:07;;;;;;;13.70;5.47;;;;;;;11.58;59.10;99064.09;5019388;28;20044;-74
2023/05/27 04:37:33;;;;;;;15.50;5.15;;;;;;;11.71;58.65;99055.84;5019508;28;20021;-74
2023/05/27 04:39:58;;;;;;;13.43;4.80;;;;;;;11.68;58.99;99061.69;5001377;28;20033;-73
2023/05/27 04:42:24;;;;;;;16.58;5.35;;;;;;;11.82;58.56;99073.94;5019224;28;20021;-76
2023/05/27 04:44:51;;;;;;;10.48;4.20;;;;;;;12.16;58.26;99075.88;5035799;28;20040;-74
2023/05/27 04:47:17;;;;;;;12.77;4.50;;;;;;;12.03;57.92;99080.66;5019425;28;20432;-74
2023/05/27 04:49:46;;;;;;;14.43;4.63;;;;;;;12.20;57.79;99082.47;5019408;28;20139;-76
2023/05/27 04:52:11;;;;;;;12.50;4.55;;;;;;;12.28;57.66;99070.50;5019625;28;20029;-77
2023/05/27 04:54:37;;;;;;;10.20;4.50;;;;;;;12.06;58.10;99086.44;5019162;28;20444;-78
2023/05/27 04:57:10;;;;;;;14.63;5.13;;;;;;;12.24;57.20;99082.81;5005019;28;20351;-76
2023/05/27 04:59:46;;;;;;;14.20;4.55;;;;;;;12.52;57.30;99074.84;5019257;28;20033;-76
2023/05/27 05:02:22;;;;;;;12.48;4.40;;;;;;;12.25;57.94;99079.09;5019771;28;20498;-74
2023/05/27 05:05:04;;;;;;;12.77;4.38;;;;;;;12.66;57.68;99086.25;5021565;28;20039;-76
2023/05/27 05:07:30;;;;;;;11.55;4.45;;;;;;;12.40;58.41;99077.56;5002478;28;20037;-75
2023/05/27 05:09:56;;;;;;;15.18;4.53;;;;;;;12.58;59.02;99079.31;5003007;28;20115;-74
2023/05/27 05:12:28;;;;;;;11.88;4.43;;;;;;;12.67;57.91;99074.38;5020438;28;20091;-74
2023/05/27 05:14:54;;;;;;;12.32;4.20;;;;;;;12.83;57.00;99076.38;5035348;28;20426;-75
2023/05/27 05:17:23;;;;;;;12.98;4.28;;;;;;;12.63;57.92;99082.13;5002520;28;20512;-75
2023/05/27 05:19:49;;;;;;;16.02;5.00;;;;;;;12.78;53.51;99074.38;5019211;28;20037;-76
2023/05/27 05:22:18;;;;;;;12.05;4.60;;;;;;;13.07;55.06;99067.16;5018740;28;20021;-75
2023/05/27 05:24:48;;;;;;;12.32;5.07;;;;;;;13.34;53.15;99087.22;5020561;28;20029;-76
2023/05/27 05:27:15;;;;;;;11.45;4.97;;;;;;;13.41;54.04;99074.38;5019662;28;20037;-77
2023/05/27 05:29:41;;;;;;;13.63;4.65;;;;;;;13.42;54.16;99089.53;5018927;28;20025;-76
2023/05/27 05:32:10;;;;;;;13.93;4.70;;;;;;;13.47;55.68;99084.22;5034994;28;20029;-76
2023/05/27 05:34:36;;;;;;;12.55;4.97;;;;;;;13.64;54.88;99085.09;5018665;28;20434;-76
2023/05/27 05:37:04;;;;;;;12.75;4.60;;;;;;;13.79;53.45;99092.69;5018589;28;20040;-76
2023/05/27 05:39:30;;;;;;;11.80;4.20;;;;;;;13.86;53.93;99082.53;5018588;28;20031;-77
2023/05/27 05:41:57;;;;;;;13.68;4.22;;;;;;;13.98;53.63;99079.75;5018441;28;20024;-77
2023/05/27 05:44:23;;;;;;;13.40;4.28;;;;;;;14.03;52.24;99077.94;5018261;28;20486;-76
2023/05/27 05:46:51;;;;;;;11.75;4.60;;;;;;;13.97;52.86;99078.09;5034680;28;20036;-76
2023/05/27 05:49:18;;;;;;;12.48;4.75;;;;;;;13.88;51.82;99081.19;5002082;28;20024;-76
2023/05/27 05:51:44;;;;;;;13.82;4.30;;;;;;;14.26;50.02;99074.28;5034452;28;20052;-75
2023/05/27 05:54:10;;;;;;;13.00;3.95;;;;;;;14.17;51.17;99073.84;5034782;28;20029;-77
2023/05/27 05:56:41;;;;;;;10.00;4.60;;;;;;;14.46;50.59;99077.31;5019105;28;20109;-75
2023/05/27 05:59:07;;;;;;;10.82;4.57;;;;;;;14.55;50.89;99086.69;5034665;28;20037;-76
2023/05/27 06:01:33;;;;;;;10.38;4.10;;;;;;;14.51;50.91;99071.97;5001728;28;20028;-76
2023/05/27 06:04:03;;;;;;;14.05;4.80;;;;;;;14.25;50.49;99070.72;5018055;28;20033;-76
2023/05/27 06:06:33;;;;;;;13.35;4.53;;;;;;;14.56;50.49;99082.91;5003461;28;20550;-75
2023/05/27 06:09:27;;;;;;;15.07;4.30;;;;;;;14.53;51.18;99067.13;5029736;28;20080;-76
2023/05/27 06:11:57;;;;;;;14.60;5.00;;;;;;;14.83;50.70;99083.00;5000820;28;20031;-77
2023/05/27 06:14:23;;;;;;;10.77;4.00;;;;;;;14.97;50.21;99089.72;5028051;28;20589;-76
2023/05/27 06:16:49;;;;;;;13.20;4.60;;;;;;;14.91;50.79;99074.47;4999072;28;20037;-77
2023/05/27 06:19:15;;;;;;;10.52;4.43;;;;;;;14.83;51.52;99089.25;5027246;28;20055;-77
2023/05/27 06:21:41;;;;;;;9.73;4.30;;;;;;;14.81;50.32;99085.97;5017566;28;20049;-77
2023/05/27 06:24:25;;;;;;;13.10;4.07;;;;;;;15.01;49.85;99086.25;5035895;28;20123;-77
2023/05/27 06:27:05;;;;;;;12.93;4.07;;;;;;;15.05;50.09;99086.59;5005194;28;20132;-76
2023/05/27 06:29:30;;;;;;;12.52;4.65;;;;;;;15.38;49.36;99096.50;5021841;28;20050;-76
2023/05/27 06:31:56;;;;;;;10.45;4.35;;;;;;;15.42;49.89;99094.91;5021282;28;20025;-77
2023/05/27 06:34:22;;;;;;;9.20;3.63;;;;;;;15.55;48.80;99089.13;5033981;28;20025;-76
2023/05/27 06:36:48;;;;;;;11.68;4.18;;;;;;;15.57;49.11;99092.38;5017630;28;20388;-77
2023/05/27 06:39:15;;;;;;;13.88;3.95;;;;;;;15.68;49.29;99089.53;5017420;28;20072;-77
2023/05/27 06:41:41;;;;;;;13.73;4.43;;;;;;;15.61;49.04;99090.81;5017395;28;20433;-76
2023/05/27 06:44:32;;;;;;;14.45;4.32;;;;;;;15.78;49.11;99091.53;5037522;28;20091;-76
2023/05/27 06:47:01;;;;;;;12.10;4.30;;;;;;;15.90;47.77;99095.75;5017971;28;20032;-77
2023/05/27 06:49:30;;;;;;;15.93;4.63;;;;;;;15.82;47.80;99087.25;5018432;28;20024;-77
2023/05/27 06:51:57;;;;;;;12.48;4.13;;;;;;;15.40;48.52;99078.06;5033656;28;20461;-78
2023/05/27 06:54:23;;;;;;;12.98;4.20;;;;;;;15.61;49.02;99088.91;5001357;28;20049;-78
2023/05/27 06:56:50;;;;;;;9.60;3.90;;;;;;;15.94;47.71;99085.19;5017858;28;20036;-77
2023/05/27 06:59:34;;;;;;;12.05;3.67;;;;;;;15.87;48.68;99074.53;5036584;28;20040;-76
2023/05/27 07:02:00;;;;;;;11.80;4.00;;;;;;;15.94;48.83;99079.75;5000818;28;20037;-78
2023/05/27 07:04:25;;;;;;;12.55;4.63;;;;;;;16.15;47.74;99081.56;5016987;28;20035;-76
2023/05/27 07:06:54;;;;;;;12.15;4.22;;;;;;;16.11;48.21;99079.63;5017518;28;20029;-77
2023/05/27 07:09:19;;;;;;;16.10;5.47;;;;;;;16.36;47.96;99083.38;5000848;28;20021;-77
2023/05/27 07:11:45;;;;;;;13.18;4.00;;;;;;;15.99;46.73;99071.63;5017282;28;20452;-76
2023/05/27 07:14:29;;;;;;;9.75;3.70;;;;;;;16.66;46.70;99073.84;5036599;28;20043;-77
2023/05/27 07:16:55;;;;;;;11.35;3.85;;;;;;;16.45;46.32;99076.38;5000889;28;20045;-77
2023/05/27 07:19:22;;;;;;;10.25;3.95;;;;;;;16.64;46.73;99073.31;5016968;28;20053;-76
2023/05/27 07:21:52;;;;;;;10.98;4.25;;;;;;;16.47;47.78;99078.84;5017820;28;20036;-78
2023/05/27 07:24:20;;;;;;;12.23;4.20;;;;;;;16.87;47.06;99078.34;5033387;28;20538;-76
2023/05/27 07:26:45;;;;;;;13.48;3.80;;;;;;;17.11;43.91;99068.66;5020973;28;20323;-76
2023/05/27 07:29:12;;;;;;;10.90;4.18;;;;;;;17.03;43.33;99080.88;5021178;28;20051;-77
2023/05/27 07:31:57;;;;;;;11.27;4.07;;;;;;;16.83;44.47;99078.03;5015938;28;20038;-77
2023/05/27 07:34:26;;;;;;;13.00;4.60;;;;;;;17.10;43.49;99083.38;5021085;28;20593;-76
2023/05/27 07:36:51;;;;;;;10.90;3.97;;;;;;;17.13;43.21;99078.19;5020951;28;20038;-77
2023/05/27 07:39:17;;;;;;;13.60;4.18;;;;;;;16.87;43.29;99075.63;5020685;28;20033;-77
2023/05/27 07:41:43;;;;;;;10.75;4.10;;;;;;;17.23;43.78;99077.41;5020519;28;20055;-77
2023/05/27 07:44:08;;;;;;;10.32;4.15;;;;;;;17.09;43.34;99070.81;5020417;28;20399;-78
2023/05/27 07:46:34;;;;;;;10.93;3.95;;;;;;;17.44;43.25;99073.69;5004365;28;20033;-76
2023/05/27 07:49:00;;;;;;;14.40;4.13;;;;;;;17.08;43.70;99072.72;5020559;28;20041;-77
2023/05/27 07:51:26;;;;;;;10.38;4.65;;;;;;;17.25;41.85;99070.63;5036889;28;20040;-76
2023/05/27 07:53:52;;;;;;;11.82;4.20;;;;;;;17.36;44.16;99066.06;5004308;28;20044;-77
2023/05/27 07:56:19;;;;;;;13.18;4.72;;;;;;;17.22;42.69;99067.63;5020533;28;20115;-76
2023/05/27 07:58:44;;;;;;;8.57;4.10;;;;;;;17.45;42.60;99064.44;5032206;28;20094;-77
2023/05/27 08:01:11;;;;;;;9.45;4.00;;;;;;;17.57;41.93;99050.63;5028851;28;20024;-77
2023/05/27 08:03:40;;;;;;;9.15;3.72;;;;;;;17.36;42.85;99054.34;5014764;28;20036;-77
2023/05/27 08:06:38;;;;;;;11.55;4.43;;;;;;;17.83;43.04;99044.94;5037677;28;20131;-77
2023/05/27 08:09:19;;;;;;;12.73;3.75;;;;;;;17.49;41.91;99045.66;5005294;28;20061;-76
2023/05/27 08:12:19;;;;;;;12.50;4.03;;;;;;;18.00;41.25;99044.69;5041103;28;20131;-72
2023/05/27 08:15:12;;;;;;;12.63;4.55;;;;;;;17.87;40.57;99037.88;5039075;28;20088;-72
2023/05/27 08:17:55;;;;;;;10.82;3.80;;;;;;;17.80;42.12;99039.22;5022594;28;20037;-72
2023/05/27 08:20:31;;;;;;;16.55;4.38;;;;;;;18.00;41.54;99035.69;5006771;28;20525;-78
2023/05/27 08:23:20;;;;;;;13.70;4.53;;;;;;;17.55;42.32;99031.81;5021034;28;20051;-77
2023/05/27 08:25:45;;;;;;;15.45;4.53;;;;;;;17.91;42.52;99021.78;5020427;28;20037;-76
2023/05/27 08:28:11;;;;;;;11.30;4.47;;;;;;;18.05;42.12;99035.69;5036864;28;20047;-77
2023/05/27 08:30:58;;;;;;;11.00;4.20;;;;;;;18.14;41.59;99023.16;5019819;28;20061;-77
2023/05/27 08:33:31;;;;;;;11.32;4.10;;;;;;;18.26;39.94;99024.53;5020618;28;20116;-76
2023/05/27 08:35:57;;;;;;;11.60;4.80;;;;;;;18.43;41.76;99022.34;5019038;28;20167;-77
2023/05/27 08:38:22;;;;;;;12.65;4.85;;;;;;;18.36;41.47;99016.34;5053842;28;20029;-77
2023/05/27 08:40:52;;;;;;;11.40;4.78;;;;;;;18.73;41.24;99012.47;5001012;28;20068;-76
2023/05/27 08:43:17;;;;;;;13.63;4.30;;;;;;;19.08;41.15;99010.44;5018033;28;20065;-77
2023/05/27 08:45:44;;;;;;;9.60;4.68;;;;;;;19.12;41.69;99008.78;5019894;28;20120;-76
2023/05/27 08:48:10;;;;;;;11.18;4.18;;;;;;;18.94;40.20;99006.69;5036039;28;20116;-77
2023/05/27 08:50:37;;;;;;;13.40;4.55;;;;;;;18.61;41.91;99010.03;5003973;28;20098;-76
2023/05/27 08:53:03;;;;;;;11.32;4.35;;;;;;;18.69;40.58;99009.50;5040974;23;20037;-76
2023/05/27 08:55:31;;;;;;;12.25;4.28;;;;;;;18.91;39.93;99006.41;5038406;28;20458;-75
2023/05/27 08:58:01;;;;;;;14.38;4.50;;;;;;;19.26;41.07;99014.44;5057979;28;20040;-76
2023/05/27 09:00:30;;;;;;;9.13;4.05;;;;;;;19.42;39.65;98996.91;5049892;28;20115;-76
2023/05/27 09:03:02;;;;;;;11.60;4.53;;;;;;;19.28;39.62;99007.63;5059359;28;20012;-76
2023/05/27 09:05:30;;;;;;;9.50;4.20;;;;;;;19.12;40.19;99003.31;5035539;28;20025;-75
2023/05/27 09:07:56;;;;;;;10.60;3.88;;;;;;;19.39;39.16;99007.59;5073276;28;20114;-75
2023/05/27 09:10:21;;;;;;;13.32;3.65;;;;;;;19.12;39.81;99006.06;5075563;28;20063;-74
2023/05/27 09:12:47;;;;;;;12.55;4.00;;;;;;;19.86;38.73;99002.38;5075193;28;20173;-75
2023/05/27 09:15:13;;;;;;;11.63;4.13;;;;;;;19.76;38.65;98994.25;5058367;28;20043;-75
2023/05/27 09:17:42;;;;;;;13.20;4.03;;;;;;;19.91;37.87;98997.69;5042075;28;20093;-76
2023/05/27 09:20:08;;;;;;;12.80;4.70;;;;;;;20.00;38.03;98989.66;5068930;28;20044;-74
2023/05/27 09:22:34;;;;;;;13.95;4.15;;;;;;;20.03;38.56;98986.38;5072371;28;20020;-74
2023/05/27 09:24:59;;;;;;;13.45;4.28;;;;;;;19.40;39.05;98992.81;5087365;28;20039;-76
2023/05/27 09:27:30;;;;;;;12.82;4.30;;;;;;;19.66;39.19;98983.38;5058489;28;20040;-76
2023/05/27 09:29:57;;;;;;;9.52;3.95;;;;;;;19.61;39.04;98984.22;5093278;28;20370;-76
2023/05/27 09:32:29;;;;;;;12.88;4.25;;;;;;;20.03;40.06;98986.38;5058529;28;20430;-76
2023/05/27 09:34:55;;;;;;;13.18;4.43;;;;;;;20.02;38.21;98984.75;5055782;28;20052;-76
2023/05/27 09:37:34;;;;;;;17.42;4.82;;;;;;;20.21;36.91;98988.38;5058604;28;20028;-76
2023/05/27 09:40:08;;;;;;;11.80;4.25;;;;;;;20.41;37.93;98977.31;5075126;28;20040;-76
2023/05/27 09:42:47;;;;;;;14.80;4.07;;;;;;;20.46;36.35;98974.53;5055120;28;20036;-75
2023/05/27 09:45:20;;;;;;;10.48;4.25;;;;;;;20.13;36.77;98986.28;5073184;28;20069;-76
2023/05/27 09:47:53;;;;;;;12.93;4.43;;;;;;;19.63;36.73;98986.66;5074534;28;20104;-75
2023/05/27 09:50:20;;;;;;;11.48;4.00;;;;;;;20.01;36.66;98972.16;5025170;28;20552;-76
2023/05/27 09:52:47;;;;;;;14.23;4.15;;;;;;;20.45;35.25;98961.09;5064681;28;20133;-76
2023/05/27 09:55:13;;;;;;;11.98;4.05;;;;;;;20.51;36.17;98970.91;5057979;28;20035;-76
2023/05/27 09:57:39;;;;;;;10.63;3.83;;;;;;;20.38;36.09;98955.97;5055083;28;20021;-76
2023/05/27 10:00:11;;;;;;;11.90;4.18;;;;;;;20.13;37.53;98948.00;5074944;28;20036;-76
2023/05/27 10:02:39;;;;;;;11.32;4.95;;;;;;;20.43;36.25;98957.84;5058639;28;20135;-76
2023/05/27 10:05:07;;;;;;;12.88;4.30;;;;;;;20.22;36.03;98951.78;5057701;28;20024;-76
2023/05/27 10:07:44;;;;;;;9.57;4.38;;;;;;;19.75;36.94;98952.41;5074666;28;20036;-76
2023/05/27 10:10:20;;;;;;;11.80;3.70;;;;;;;20.00;36.63;98940.44;5074759;28;20040;-76
2023/05/27 10:12:46;;;;;;;12.27;3.83;;;;;;;21.04;34.87;98947.00;5058832;23;20049;-75
2023/05/27 10:15:31;;;;;;;8.88;3.70;;;;;;;21.09;34.45;98944.22;4948637;28;20433;-76
2023/05/27 10:18:06;;;;;;;9.60;3.90;;;;;;;20.40;34.50;98940.09;4947366;28;20044;-76
2023/05/27 10:20:37;;;;;;;10.52;4.13;;;;;;;21.01;34.15;98931.16;4977024;28;20079;-76
2023/05/27 10:23:26;;;;;;;12.38;4.10;;;;;;;20.60;34.63;98931.66;4971573;28;20125;-76
2023/05/27 10:25:55;;;;;;;9.27;3.53;;;;;;;20.45;33.87;98934.56;4953648;28;20050;-76
2023/05/27 10:28:26;;;;;;;9.05;3.60;;;;;;;20.71;33.37;98915.94;4963289;28;20406;-75
2023/05/27 10:30:52;;;;;;;11.45;4.07;;;;;;;20.90;32.98;98919.53;4986176;28;20076;-77
2023/05/27 10:33:27;;;;;;;12.25;3.97;;;;;;;21.01;33.50;98920.19;4955565;28;20062;-76
2023/05/27 10:35:53;;;;;;;;;;;;;;;21.06;34.44;98923.72;4966918;28;20057;-76
2023/05/27 10:38:18;;;;;;;10.20;4.50;;;;;;;20.71;33.17;98926.06;4985305;28;20391;-76
2023/05/27 10:40:45;;;;;;;11.32;3.67;;;;;;;21.22;33.94;98916.09;4947578;28;20038;-75
2023/05/27 10:43:18;;;;;;;12.50;4.40;;;;;;;21.11;32.86;98914.63;4971768;28;20027;-75
2023/05/27 10:45:43;;;;;;;12.07;4.10;;;;;;;21.50;33.04;98906.91;4948354;28;20026;-75
2023/05/27 10:48:19;;;;;;;9.60;4.20;;;;;;;21.28;31.38;98912.19;4976599;28;20087;-75
2023/05/27 10:50:51;;;;;;;11.13;3.63;;;;;;;21.62;31.62;98903.69;4984691;28;20077;-74
2023/05/27 10:53:20;;;;;;;8.93;4.07;;;;;;;21.57;32.04;98904.59;4970153;28;20464;-74
2023/05/27 10:55:47;;;;;;;10.18;3.63;;;;;;;21.76;30.38;98897.16;4952260;28;20022;-74
2023/05/27 10:58:13;;;;;;;11.48;3.85;;;;;;;21.50;32.41;98904.16;4943424;28;20054;-74
2023/05/27 11:00:40;;;;;;;10.98;3.78;;;;;;;22.00;32.74;98897.88;4967084;28;20479;-74
2023/05/27 11:03:27;;;;;;;9.73;3.80;;;;;;;21.69;32.86;98904.97;4963950;28;20050;-74
2023/05/27 11:06:12;;;;;;;9.82;3.78;;;;;;;21.20;33.58;98896.41;4947258;28;20035;-74
2023/05/27 11:08:38;;;;;;;10.15;4.22;;;;;;;21.91;31.60;98891.44;4950121;28;20381;-74
2023/05/27 11:11:09;;;;;;;8.13;3.58;;;;;;;22.31;32.63;98889.09;4953363;28;20027;-75
2023/05/27 11:13:45;;;;;;;8.00;3.92;;;;;;;22.11;30.00;98884.78;4949653;28;20566;-75
2023/05/27 11:16:11;;;;;;;;;;;;;;;22.14;31.06;98886.09;4978636;28;20034;-75
2023/05/27 11:18:44;;;;;;;9.38;3.88;;;;;;;22.14;30.49;98883.38;4995812;28;19964;-75
2023/05/27 11:21:10;;;;;;;8.32;3.42;;;;;;;22.45;30.83;98884.41;4952712;28;20125;-75
2023/05/27 11:23:46;;;;;;;14.93;4.43;;;;;;;23.07;29.69;98875.44;4951957;28;20420;-75
2023/05/27 11:26:15;;;;;;;9.25;3.67;;;;;;;22.78;28.98;98872.22;4960788;28;20481;-75
2023/05/27 11:28:51;;;;;;;10.85;3.55;;;;;;;23.07;29.35;98863.63;4986757;28;20038;-75
2023/05/27 11:31:22;;;;;;;10.07;3.78;;;;;;;22.48;29.04;98867.31;4990707;28;20030;-75
2023/05/27 11:33:50;;;;;;;9.45;3.63;;;;;;;22.99;29.15;98867.91;4990665;28;20046;-75
2023/05/27 11:36:16;;;;;;;8.73;3.92;;;;;;;22.57;28.95;98860.81;4980087;28;20026;-73
2023/05/27 11:38:47;;;;;;;9.90;3.85;;;;;;;22.75;29.69;98861.84;4944045;28;20041;-72
2023/05/27 11:41:12;;;;;;;10.23;4.05;;;;;;;23.54;28.50;98862.25;4979066;28;20400;-73
2023/05/27 11:43:59;;;;;;;8.73;3.55;;;;;;;23.61;29.38;98854.38;4973282;28;20037;-72
2023/05/27 11:46:42;;;;;;;8.23;3.80;;;;;;;22.91;28.90;98857.66;4975538;28;20137;-72
2023/05/27 11:49:10;;;;;;;7.57;3.67;;;;;;;22.59;29.01;98852.28;4980893;28;20054;-72
2023/05/27 11:51:46;;;;;;;9.90;3.95;;;;;;;23.07;26.95;98852.63;4958901;28;20081;-72
2023/05/27 11:54:18;;;;;;;8.90;4.50;;;;;;;23.51;27.48;98840.88;4963015;28;20114;-72
2023/05/27 11:56:43;;;;;;;9.43;4.00;;;;;;;23.82;27.14;98842.56;4955384;28;20041;-71
2023/05/27 11:59:08;;;;;;;10.10;3.65;;;;;;;23.96;25.38;98836.97;4971058;28;20396;-73
2023/05/27 12:01:34;;;;;;;8.25;3.70;;;;;;;23.08;25.73;98838.56;4970943;28;20043;-73